Time;durP1;ratioP1;P1;durP2;ratioP2;P2;SDS_P1;SDS_P2;PMS_P1;PMS_P2;Temp;Humidity;BMP_temperature;BMP_pressure;BME280_temperature;BME280_humidity;BME280_pressure;Samples;Min_cycle;Max_cycle;Signal;HPM_P1;HPM_P2
2023/03/25 00:02:08;;;;;;;2.17;1.20;;;14.50;99.90;;;;;;6274554;28;20478;-63
2023/03/25 00:05:13;;;;;;;0.80;0.80;;;14.50;99.90;;;;;;6274156;28;20498;-62
2023/03/25 00:08:17;;;;;;;1.50;1.40;;;14.40;99.90;;;;;;6278772;28;20478;-62
2023/03/25 00:11:20;;;;;;;1.30;1.20;;;14.30;99.90;;;;;;6270737;28;20471;-62
2023/03/25 00:14:25;;;;;;;1.37;1.27;;;14.20;99.90;;;;;;6253690;28;20981;-62
2023/03/25 00:17:29;;;;;;;1.20;1.10;;;14.20;99.90;;;;;;6253973;28;20972;-62
2023/03/25 00:20:33;;;;;;;1.40;1.30;;;14.10;99.90;;;;;;6253544;28;20482;-62
2023/03/25 00:23:36;;;;;;;3.87;3.57;;;14.00;99.90;;;;;;6277265;28;20835;-62
2023/03/25 00:26:41;;;;;;;4.50;4.30;;;13.90;99.90;;;;;;6277437;28;20473;-62
2023/03/25 00:29:46;;;;;;;6.80;6.40;;;13.90;99.90;;;;;;6277411;28;20556;-69
2023/03/25 00:32:51;;;;;;;7.23;6.77;;;13.90;99.90;;;;;;6276569;28;20485;-66
2023/03/25 00:35:58;;;;;;;5.57;5.07;;;13.80;99.90;;;;;;6276333;28;20553;-66
2023/03/25 00:39:01;;;;;;;1.27;1.17;;;13.80;99.90;;;;;;6276330;28;20469;-66
2023/03/25 00:42:05;;;;;;;1.30;1.20;;;13.80;99.90;;;;;;6276570;28;20477;-62
2023/03/25 00:45:11;;;;;;;2.27;1.40;;;13.70;99.90;;;;;;6275850;28;20481;-67
2023/03/25 00:48:14;;;;;;;4.97;2.00;;;13.60;99.90;;;;;;6276354;28;20476;-63
2023/03/25 00:51:20;;;;;;;1.10;1.10;;;13.60;99.90;;;;;;6277415;28;20485;-62
2023/03/25 00:54:24;;;;;;;2.83;2.63;;;13.60;99.90;;;;;;6277419;28;20789;-65
2023/03/25 00:57:27;;;;;;;1.97;1.63;;;13.50;99.90;;;;;;6277394;28;20966;-64
2023/03/25 01:00:32;;;;;;;2.40;1.70;;;13.40;99.90;;;;;;6277471;28;20485;-65
2023/03/25 01:03:36;;;;;;;1.80;1.43;;;13.40;99.90;;;;;;6276915;28;20962;-61
2023/03/25 01:06:42;;;;;;;2.40;2.20;;;13.40;99.90;;;;;;6275638;28;20941;-64
2023/03/25 01:09:46;;;;;;;1.77;1.67;;;13.40;99.90;;;;;;6277038;28;20243;-64
2023/03/25 01:12:49;;;;;;;1.80;1.70;;;13.20;99.90;;;;;;6276849;28;20830;-61
2023/03/25 01:15:54;;;;;;;1.57;1.30;;;13.30;99.90;;;;;;6276507;28;21005;-64
2023/03/25 01:18:57;;;;;;;3.00;1.70;;;13.00;99.90;;;;;;6272105;28;20467;-64
2023/03/25 01:22:00;;;;;;;1.87;1.70;;;13.00;99.90;;;;;;6252249;28;20447;-63
2023/03/25 01:25:04;;;;;;;1.93;1.83;;;13.00;99.90;;;;;;6252103;28;20913;-66
2023/03/25 01:28:07;;;;;;;1.73;1.60;;;12.70;99.90;;;;;;6252300;28;20455;-64
2023/03/25 01:31:14;;;;;;;2.43;1.53;;;12.60;99.90;;;;;;6270315;28;20446;-66
2023/03/25 01:34:18;;;;;;;1.70;1.30;;;12.70;99.90;;;;;;6276307;28;20485;-64
2023/03/25 01:37:21;;;;;;;1.47;1.37;;;12.70;99.90;;;;;;6275789;28;20928;-66
2023/03/25 01:40:24;;;;;;;1.60;1.50;;;12.60;99.90;;;;;;6276497;28;20473;-65
2023/03/25 01:43:28;;;;;;;2.47;1.67;;;12.50;99.90;;;;;;6275524;28;20473;-62
2023/03/25 01:46:33;;;;;;;2.63;1.27;;;12.50;99.90;;;;;;6274705;28;20478;-63
2023/03/25 01:49:39;;;;;;;3.60;3.30;;;12.50;99.90;;;;;;6274313;28;20474;-62
2023/03/25 01:52:46;;;;;;;2.47;1.50;;;12.60;99.90;;;;;;6274494;28;20498;-63
2023/03/25 01:55:51;;;;;;;3.73;1.97;;;12.60;99.90;;;;;;6271111;28;20494;-63
2023/03/25 01:58:56;;;;;;;12.63;11.67;;;12.70;99.90;;;;;;6274155;28;20466;-62
2023/03/25 02:02:03;;;;;;;9.93;9.13;;;12.60;99.90;;;;;;6275315;28;20470;-67
2023/03/25 02:05:12;;;;;;;6.80;6.37;;;12.70;99.90;;;;;;6273873;28;20514;-64
2023/03/25 02:08:16;;;;;;;1.90;1.80;;;12.70;99.90;;;;;;6262278;28;20466;-64
2023/03/25 02:11:20;;;;;;;3.80;3.50;;;12.60;99.90;;;;;;6273726;28;20482;-64
2023/03/25 02:14:25;;;;;;;1.70;1.60;;;12.50;99.90;;;;;;6273707;28;20474;-64
2023/03/25 02:17:38;;;;;;;1.23;1.13;;;12.60;99.90;;;;;;6273953;28;20613;-64
2023/03/25 02:21:25;;;;;;;1.40;1.30;;;12.70;99.90;;;;;;6274013;28;20550;-63
2023/03/25 02:25:14;;;;;;;2.20;0.90;;;12.80;99.90;;;;;;6245765;28;20978;-64
2023/03/25 02:28:28;;;;;;;1.83;1.07;;;12.80;99.90;;;;;;6273551;28;20450;-64
2023/03/25 02:31:55;;;;;;;1.07;0.97;;;12.80;99.90;;;;;;6255844;28;20476;-64
2023/03/25 02:35:21;;;;;;;1.83;0.90;;;12.90;99.90;;;;;;6248480;28;21131;-64
2023/03/25 02:38:39;;;;;;;1.63;1.20;;;13.00;99.90;;;;;;6248727;28;20494;-64
2023/03/25 02:41:50;;;;;;;1.90;0.90;;;13.00;99.90;;;;;;6248004;28;20471;-64
2023/03/25 02:44:59;;;;;;;1.03;0.93;;;13.00;99.90;;;;;;6248222;28;20480;-64
2023/03/25 02:48:05;;;;;;;0.90;0.90;;;12.90;99.90;;;;;;6248608;28;20471;-64
2023/03/25 02:51:14;;;;;;;2.23;1.20;;;12.90;99.90;;;;;;6247899;28;20491;-64
2023/03/25 02:54:21;;;;;;;1.97;1.60;;;12.90;99.90;;;;;;6248231;28;20474;-64
2023/03/25 02:57:28;;;;;;;1.37;1.03;;;12.80;99.90;;;;;;6248127;28;20806;-64
2023/03/25 03:00:33;;;;;;;2.20;1.07;;;12.70;99.90;;;;;;6248174;28;20482;-64
2023/03/25 03:03:36;;;;;;;1.30;1.20;;;12.80;99.90;;;;;;6248075;28;20471;-64
2023/03/25 03:06:43;;;;;;;1.63;1.40;;;12.80;99.90;;;;;;6272068;28;20475;-64
2023/03/25 03:09:54;;;;;;;1.27;1.20;;;12.90;99.90;;;;;;6272692;28;20485;-64
2023/03/25 03:13:10;;;;;;;1.60;0.93;;;13.00;99.90;;;;;;6272284;28;20458;-64
2023/03/25 03:16:23;;;;;;;1.70;1.30;;;13.00;99.90;;;;;;6272390;28;20946;-64
2023/03/25 03:19:37;;;;;;;1.43;1.20;;;12.90;99.90;;;;;;6272626;28;20488;-64
2023/03/25 03:22:45;;;;;;;1.47;1.37;;;13.00;99.90;;;;;;6272449;28;20805;-64
2023/03/25 03:25:53;;;;;;;1.97;1.13;;;13.00;99.90;;;;;;6272309;28;20474;-64
2023/03/25 03:29:03;;;;;;;2.47;1.30;;;13.00;99.90;;;;;;6272767;28;20478;-64
2023/03/25 03:32:12;;;;;;;1.33;1.20;;;13.00;99.90;;;;;;6272408;28;20967;-64
2023/03/25 03:35:20;;;;;;;1.77;1.20;;;13.00;99.90;;;;;;6271975;28;21190;-65
2023/03/25 03:38:27;;;;;;;1.43;1.33;;;13.10;99.90;;;;;;6272398;28;20474;-64
2023/03/25 03:41:35;;;;;;;1.60;1.50;;;13.10;99.90;;;;;;6275003;28;20779;-64
2023/03/25 03:44:41;;;;;;;1.03;0.93;;;13.00;99.90;;;;;;6280497;28;20480;-64
2023/03/25 03:47:49;;;;;;;3.77;1.63;;;13.10;99.90;;;;;;6280647;28;20481;-64
2023/03/25 03:50:56;;;;;;;1.50;1.40;;;13.00;99.90;;;;;;6280480;28;20473;-64
2023/03/25 03:54:02;;;;;;;3.80;3.60;;;12.80;99.90;;;;;;6280505;28;20492;-64
2023/03/25 03:57:11;;;;;;;1.83;1.73;;;12.80;99.90;;;;;;6279969;28;20555;-64
2023/03/25 04:00:17;;;;;;;2.17;1.97;;;12.80;99.90;;;;;;6278763;28;20962;-64
2023/03/25 04:03:24;;;;;;;1.70;1.50;;;12.80;99.90;;;;;;6280609;28;20474;-64
2023/03/25 04:06:34;;;;;;;2.87;1.23;;;12.80;99.90;;;;;;6280548;28;20844;-64
2023/03/25 04:09:43;;;;;;;2.80;1.77;;;12.80;99.90;;;;;;6281755;28;20826;-64
2023/03/25 04:12:51;;;;;;;1.97;1.30;;;12.90;99.90;;;;;;6281987;28;20470;-64
2023/03/25 04:15:57;;;;;;;1.90;1.33;;;12.90;99.90;;;;;;6281936;28;20478;-64
2023/03/25 04:19:00;;;;;;;1.40;1.30;;;12.90;99.90;;;;;;6282178;28;20768;-64
2023/03/25 04:22:04;;;;;;;1.77;1.60;;;12.90;99.90;;;;;;6282747;28;20449;-64
2023/03/25 04:25:08;;;;;;;2.03;1.83;;;12.80;99.90;;;;;;6282146;28;20931;-64
2023/03/25 04:28:12;;;;;;;2.30;2.10;;;12.70;99.90;;;;;;6282443;28;20430;-64
2023/03/25 04:31:17;;;;;;;1.83;1.50;;;12.70;99.90;;;;;;6281525;28;20469;-64
2023/03/25 04:34:20;;;;;;;2.00;1.70;;;12.70;99.90;;;;;;6281372;28;20564;-64
2023/03/25 04:37:24;;;;;;;2.13;1.50;;;12.70;99.90;;;;;;6280724;28;20476;-64
2023/03/25 04:40:27;;;;;;;1.77;1.57;;;12.70;99.90;;;;;;6281637;28;20462;-64
2023/03/25 04:43:32;;;;;;;1.83;1.43;;;12.80;99.90;;;;;;6281761;28;20462;-64
2023/03/25 04:46:36;;;;;;;2.90;2.03;;;12.80;99.90;;;;;;6282008;28;20481;-64
2023/03/25 04:49:40;;;;;;;1.83;1.70;;;12.80;99.90;;;;;;6281139;28;20476;-64
2023/03/25 04:52:43;;;;;;;2.00;1.90;;;12.80;99.90;;;;;;6279855;28;20477;-64
2023/03/25 04:55:48;;;;;;;2.10;1.90;;;12.80;99.90;;;;;;6277610;28;20469;-64
2023/03/25 04:58:53;;;;;;;2.43;1.90;;;12.70;99.90;;;;;;6277914;28;20488;-64
2023/03/25 05:01:56;;;;;;;2.30;2.10;;;12.80;99.90;;;;;;6277414;28;20824;-63
2023/03/25 05:05:01;;;;;;;3.37;2.30;;;12.80;99.90;;;;;;6277764;28;20477;-64
2023/03/25 05:08:04;;;;;;;3.30;3.10;;;12.70;99.90;;;;;;6277444;28;20465;-64
2023/03/25 05:11:07;;;;;;;3.20;2.30;;;12.70;99.90;;;;;;6277153;28;20478;-64
2023/03/25 05:14:14;;;;;;;2.03;1.83;;;12.80;99.90;;;;;;6277252;28;20477;-64
2023/03/25 05:17:17;;;;;;;2.23;1.97;;;12.80;99.90;;;;;;6277184;28;20978;-64
2023/03/25 05:20:22;;;;;;;2.50;2.30;;;12.80;99.90;;;;;;6267981;28;20470;-64
2023/03/25 05:23:25;;;;;;;2.83;2.63;;;12.80;99.90;;;;;;6276925;28;20470;-64
2023/03/25 05:26:33;;;;;;;2.60;2.40;;;12.80;99.90;;;;;;6276679;28;20800;-64
2023/03/25 05:29:37;;;;;;;1.97;1.87;;;12.80;99.90;;;;;;6277094;28;20476;-63
2023/03/25 05:32:41;;;;;;;2.63;2.43;;;12.80;99.90;;;;;;6276697;28;20516;-64
2023/03/25 05:35:45;;;;;;;2.20;2.00;;;12.80;99.90;;;;;;6276772;28;20481;-64
2023/03/25 05:38:48;;;;;;;3.23;2.30;;;12.80;99.90;;;;;;6276564;28;20482;-64
2023/03/25 05:41:54;;;;;;;3.03;2.80;;;12.90;99.90;;;;;;6276750;28;20508;-64
2023/03/25 05:45:00;;;;;;;5.63;2.40;;;13.00;99.90;;;;;;6276547;28;20853;-64
2023/03/25 05:48:04;;;;;;;2.60;2.37;;;13.00;99.90;;;;;;6276738;28;20469;-65
2023/03/25 05:51:12;;;;;;;3.20;2.90;;;13.10;99.90;;;;;;6276394;28;20537;-64
2023/03/25 05:54:16;;;;;;;2.83;2.47;;;13.20;99.90;;;;;;6276132;28;20481;-65
2023/03/25 05:57:19;;;;;;;3.40;2.57;;;13.20;99.90;;;;;;6276161;28;20482;-64
2023/03/25 06:00:24;;;;;;;3.03;2.83;;;13.20;99.90;;;;;;6276149;28;20492;-64
2023/03/25 06:03:27;;;;;;;5.50;4.20;;;13.20;99.90;;;;;;6276220;28;20481;-64
2023/03/25 06:06:32;;;;;;;4.00;3.70;;;12.90;99.90;;;;;;6275830;28;20561;-64
2023/03/25 06:09:36;;;;;;;3.43;2.80;;;12.80;99.90;;;;;;6276185;28;21065;-64
2023/03/25 06:12:39;;;;;;;4.23;2.87;;;12.80;99.90;;;;;;6275985;28;20470;-64
2023/03/25 06:15:44;;;;;;;3.47;2.73;;;12.50;99.90;;;;;;6275728;28;20478;-64
2023/03/25 06:18:54;;;;;;;2.80;2.60;;;12.60;99.90;;;;;;6275573;28;20482;-64
2023/03/25 06:21:58;;;;;;;3.53;3.23;;;12.60;99.90;;;;;;6271550;28;20466;-64
2023/03/25 06:25:02;;;;;;;4.20;3.40;;;12.70;99.90;;;;;;6275411;28;20466;-63
2023/03/25 06:28:06;;;;;;;6.30;3.70;;;12.70;99.90;;;;;;6275440;28;20422;-64
2023/03/25 06:31:15;;;;;;;3.47;3.17;;;12.70;99.90;;;;;;6275605;28;20465;-64
2023/03/25 06:34:19;;;;;;;4.10;3.23;;;12.80;99.90;;;;;;6275159;28;20961;-64
2023/03/25 06:37:27;;;;;;;2.83;2.63;;;12.90;99.90;;;;;;6275731;28;20466;-64
2023/03/25 06:40:30;;;;;;;3.20;2.90;;;13.00;99.90;;;;;;6275156;28;20975;-64
2023/03/25 06:43:33;;;;;;;3.03;2.77;;;13.10;99.90;;;;;;6275769;28;20990;-64
2023/03/25 06:46:38;;;;;;;3.50;3.20;;;13.20;99.90;;;;;;6275590;28;20481;-63
2023/03/25 06:49:41;;;;;;;4.80;4.50;;;13.20;99.90;;;;;;6277541;28;20474;-63
2023/03/25 06:52:44;;;;;;;4.00;3.70;;;13.30;99.90;;;;;;6276576;28;20480;-63
2023/03/25 06:55:48;;;;;;;5.13;4.73;;;13.40;99.90;;;;;;6275224;28;20474;-63
2023/03/25 06:58:51;;;;;;;5.50;5.10;;;13.60;99.90;;;;;;6274956;28;20458;-64
2023/03/25 07:01:56;;;;;;;3.47;3.23;;;13.70;99.90;;;;;;6275026;28;20481;-64
2023/03/25 07:04:59;;;;;;;6.07;3.73;;;13.80;99.90;;;;;;6274571;28;20474;-64
2023/03/25 07:08:02;;;;;;;4.63;4.23;;;13.70;99.90;;;;;;6274874;28;20484;-64
2023/03/25 07:11:07;;;;;;;3.70;3.40;;;13.70;99.90;;;;;;6274909;28;20473;-64
2023/03/25 07:14:10;;;;;;;3.40;3.20;;;13.70;99.90;;;;;;6274604;28;20461;-64
2023/03/25 07:17:15;;;;;;;6.10;3.17;;;13.60;99.90;;;;;;6273817;28;20481;-64
2023/03/25 07:20:18;;;;;;;4.20;3.83;;;13.40;99.90;;;;;;6274185;28;20470;-64
2023/03/25 07:23:21;;;;;;;4.67;4.37;;;13.40;99.90;;;;;;6274359;28;20481;-64
2023/03/25 07:26:24;;;;;;;6.03;5.47;;;13.20;99.90;;;;;;6274044;28;20485;-64
2023/03/25 07:29:28;;;;;;;6.30;5.80;;;13.10;99.90;;;;;;6274368;28;20527;-64
2023/03/25 07:32:33;;;;;;;6.23;5.73;;;12.90;99.90;;;;;;6274514;28;20513;-64
2023/03/25 07:35:37;;;;;;;6.47;5.87;;;12.90;99.90;;;;;;6274150;28;20798;-63
2023/03/25 07:38:40;;;;;;;6.90;6.30;;;13.00;99.90;;;;;;6274339;28;20466;-63
2023/03/25 07:41:46;;;;;;;6.47;5.47;;;13.20;99.90;;;;;;6274140;28;20472;-63
2023/03/25 07:44:49;;;;;;;6.10;5.50;;;13.50;99.90;;;;;;6274355;28;20485;-63
2023/03/25 07:47:53;;;;;;;5.10;4.70;;;13.80;99.90;;;;;;6274215;28;20812;-63
2023/03/25 07:50:57;;;;;;;4.23;3.93;;;14.10;99.90;;;;;;6274107;28;20480;-63
2023/03/25 07:54:00;;;;;;;4.73;4.27;;;14.60;99.90;;;;;;6274240;28;20516;-64
2023/03/25 07:57:08;;;;;;;5.27;4.87;;;15.00;99.90;;;;;;6274034;28;20963;-64
2023/03/25 08:00:13;;;;;;;5.70;4.40;;;15.40;99.90;;;;;;6273927;28;20512;-64
2023/03/25 08:03:17;;;;;;;6.57;5.97;;;15.60;99.90;;;;;;6274217;28;20476;-64
2023/03/25 08:06:21;;;;;;;5.37;4.87;;;15.90;99.90;;;;;;6259899;28;20565;-64
2023/03/25 08:09:24;;;;;;;3.53;3.33;;;16.40;99.90;;;;;;6249041;28;20486;-64
2023/03/25 08:12:27;;;;;;;3.70;3.40;;;16.70;99.90;;;;;;6249013;28;20475;-64
2023/03/25 08:15:31;;;;;;;3.97;3.60;;;17.00;99.90;;;;;;6248912;28;20475;-64
2023/03/25 08:18:35;;;;;;;4.93;4.43;;;17.20;99.90;;;;;;6248899;28;20486;-64
2023/03/25 08:21:39;;;;;;;6.80;4.80;;;17.30;99.90;;;;;;6249138;28;20953;-64
2023/03/25 08:24:42;;;;;;;4.40;4.00;;;17.00;99.90;;;;;;6248820;28;20774;-63
2023/03/25 08:27:45;;;;;;;4.17;3.87;;;16.90;99.90;;;;;;6271931;28;20473;-65
2023/03/25 08:30:53;;;;;;;8.23;7.60;;;16.60;99.90;;;;;;6278461;28;20470;-65
2023/03/25 08:33:59;;;;;;;4.33;3.93;;;16.30;99.90;;;;;;6269393;28;20952;-64
2023/03/25 08:37:03;;;;;;;5.20;4.70;;;16.00;99.90;;;;;;6278570;28;20568;-63
2023/03/25 08:40:08;;;;;;;3.93;3.60;;;15.70;99.90;;;;;;6278317;28;20796;-64
2023/03/25 08:43:13;;;;;;;5.53;4.03;;;15.30;99.90;;;;;;6278592;28;20446;-64
2023/03/25 08:46:16;;;;;;;4.60;4.30;;;15.10;99.90;;;;;;6278749;28;20467;-65
2023/03/25 08:49:21;;;;;;;4.17;3.87;;;14.80;99.90;;;;;;6278140;28;20490;-64
2023/03/25 08:52:25;;;;;;;6.63;4.30;;;14.70;99.90;;;;;;6278300;28;20461;-64
2023/03/25 08:55:28;;;;;;;4.20;3.90;;;14.50;99.90;;;;;;6277629;28;20485;-64
2023/03/25 08:58:31;;;;;;;3.80;3.50;;;14.30;99.90;;;;;;6277515;28;20466;-64
2023/03/25 09:01:35;;;;;;;3.60;3.10;;;14.10;99.90;;;;;;6278285;28;20477;-64
2023/03/25 09:04:40;;;;;;;2.83;2.47;;;13.80;99.90;;;;;;6277327;28;21105;-63
2023/03/25 09:07:43;;;;;;;6.23;4.40;;;13.60;99.90;;;;;;6277672;28;20567;-63
2023/03/25 09:10:47;;;;;;;2.93;2.73;;;13.40;99.90;;;;;;6277552;28;20466;-64
2023/03/25 09:13:50;;;;;;;2.60;2.17;;;13.30;99.90;;;;;;6277445;28;20782;-64
2023/03/25 09:16:53;;;;;;;3.80;3.23;;;13.30;99.90;;;;;;6277397;28;20470;-64
2023/03/25 09:19:58;;;;;;;3.43;3.13;;;13.20;99.90;;;;;;6277160;28;20485;-64
2023/03/25 09:23:01;;;;;;;6.00;4.03;;;13.10;99.90;;;;;;6276787;28;20959;-64
2023/03/25 09:26:05;;;;;;;2.30;2.10;;;13.10;99.90;;;;;;6277238;28;20486;-64
2023/03/25 09:29:08;;;;;;;2.77;1.93;;;13.20;99.90;;;;;;6277301;28;20470;-64
2023/03/25 09:32:11;;;;;;;3.43;1.63;;;13.30;99.90;;;;;;6277196;28;20474;-64
2023/03/25 09:35:16;;;;;;;1.70;1.60;;;13.30;99.90;;;;;;6267934;28;20478;-63
2023/03/25 09:38:19;;;;;;;1.50;1.40;;;13.10;99.90;;;;;;6276551;28;20837;-64
2023/03/25 09:41:46;;;;;;;3.60;1.70;;;13.00;99.90;;;;;;6276254;28;20633;-64
2023/03/25 09:44:58;;;;;;;4.20;1.90;;;13.00;99.90;;;;;;6276394;28;20478;-65
2023/03/25 09:48:24;;;;;;;2.47;2.00;;;12.90;99.90;;;;;;6276813;28;20549;-64
2023/03/25 09:51:34;;;;;;;2.00;1.90;;;13.00;99.90;;;;;;6276791;28;20471;-64
2023/03/25 09:54:39;;;;;;;2.83;2.00;;;12.90;99.90;;;;;;6276559;28;20470;-64
2023/03/25 09:57:48;;;;;;;3.20;2.27;;;12.70;99.90;;;;;;6275886;28;20466;-65
2023/03/25 10:00:56;;;;;;;4.17;2.37;;;12.70;99.90;;;;;;6275668;28;20477;-62
2023/03/25 10:04:14;;;;;;;3.00;1.70;;;12.70;99.90;;;;;;6276585;28;20458;-64
2023/03/25 10:07:43;;;;;;;4.57;2.07;;;12.50;99.90;;;;;;6276194;28;20470;-64
2023/03/25 10:10:52;;;;;;;1.53;1.43;;;12.30;99.90;;;;;;6273493;28;20481;-64
2023/03/25 10:14:05;;;;;;;3.07;1.40;;;12.20;99.90;;;;;;6275314;28;20814;-63
2023/03/25 10:17:17;;;;;;;2.93;1.80;;;12.30;99.90;;;;;;6274966;28;20998;-64
2023/03/25 10:20:26;;;;;;;2.30;1.77;;;12.30;99.90;;;;;;6272588;28;20467;-64
2023/03/25 10:23:36;;;;;;;2.40;1.20;;;12.40;99.90;;;;;;6276449;28;20479;-63
2023/03/25 10:26:45;;;;;;;3.03;1.63;;;12.40;99.90;;;;;;6268528;28;20972;-65
2023/03/25 10:29:53;;;;;;;1.70;1.53;;;12.40;99.90;;;;;;6250446;28;20953;-66
2023/03/25 10:32:59;;;;;;;4.50;3.40;;;12.50;99.90;;;;;;6250188;28;20486;-66
2023/03/25 10:36:04;;;;;;;4.13;1.30;;;12.50;99.90;;;;;;6250198;28;20968;-65
2023/03/25 10:39:17;;;;;;;1.53;1.30;;;12.40;99.90;;;;;;6245850;28;20479;-65
2023/03/25 10:42:27;;;;;;;1.93;1.27;;;12.50;99.90;;;;;;6250861;28;20486;-64
2023/03/25 10:45:30;;;;;;;1.20;1.10;;;12.50;99.90;;;;;;6250300;28;20475;-66
2023/03/25 10:48:34;;;;;;;1.53;1.40;;;12.60;99.90;;;;;;6250139;28;20502;-66
2023/03/25 10:51:38;;;;;;;1.83;1.40;;;12.70;99.90;;;;;;6249586;28;20824;-68
2023/03/25 10:54:47;;;;;;;3.37;1.23;;;12.80;99.50;;;;;;6250067;28;20471;-65
2023/03/25 10:57:52;;;;;;;2.03;1.00;;;12.90;98.90;;;;;;6250290;28;20540;-68
2023/03/25 11:00:55;;;;;;;1.20;0.90;;;12.90;98.80;;;;;;6250073;28;20486;-65
2023/03/25 11:04:00;;;;;;;1.37;1.27;;;12.90;98.70;;;;;;6250133;28;20562;-66
2023/03/25 11:07:13;;;;;;;0.97;0.97;;;13.10;98.60;;;;;;6250126;28;20467;-65
2023/03/25 11:10:21;;;;;;;2.20;1.03;;;13.30;97.40;;;;;;6249898;28;20423;-65
2023/03/25 11:13:25;;;;;;;0.90;0.63;;;13.20;96.90;;;;;;6250252;28;20483;-66
2023/03/25 11:16:32;;;;;;;1.80;0.97;;;13.20;96.90;;;;;;6249716;28;20471;-65
2023/03/25 11:19:40;;;;;;;0.90;0.90;;;13.30;96.00;;;;;;6249764;28;20962;-65
2023/03/25 11:22:48;;;;;;;1.63;1.07;;;13.30;95.40;;;;;;6249799;28;20475;-65
2023/03/25 11:25:54;;;;;;;1.00;0.90;;;13.00;96.20;;;;;;6256980;28;20485;-64
2023/03/25 11:29:04;;;;;;;2.00;1.43;;;13.00;96.00;;;;;;6260458;28;20588;-62
2023/03/25 11:32:12;;;;;;;1.27;1.13;;;13.00;96.50;;;;;;6271024;28;20469;-63
2023/03/25 11:35:18;;;;;;;3.80;1.00;;;13.10;95.90;;;;;;6272977;28;20482;-63
2023/03/25 11:38:23;;;;;;;1.47;1.00;;;13.10;96.10;;;;;;6272762;28;20473;-63
2023/03/25 11:41:34;;;;;;;2.70;1.47;;;12.90;96.50;;;;;;6273256;28;20477;-64
2023/03/25 11:44:37;;;;;;;1.10;1.00;;;12.90;96.90;;;;;;6271885;28;20474;-63
2023/03/25 11:47:41;;;;;;;1.03;0.90;;;12.60;97.10;;;;;;6272174;28;20485;-65
2023/03/25 11:50:51;;;;;;;3.13;1.03;;;12.60;97.40;;;;;;6271903;28;20478;-64
2023/03/25 11:53:58;;;;;;;2.40;0.97;;;12.60;97.90;;;;;;6274010;28;20474;-65
2023/03/25 11:57:03;;;;;;;1.60;0.80;;;12.50;97.30;;;;;;6269491;28;20466;-65
2023/03/25 12:00:17;;;;;;;0.77;0.77;;;12.40;97.20;;;;;;6273686;28;20478;-65
2023/03/25 12:03:22;;;;;;;0.80;0.70;;;12.40;97.40;;;;;;6275260;28;20785;-64
2023/03/25 12:06:25;;;;;;;0.80;0.50;;;12.50;97.20;;;;;;6278685;28;20486;-65
2023/03/25 12:09:31;;;;;;;1.53;1.00;;;12.50;96.70;;;;;;6279479;28;20466;-65
2023/03/25 12:12:43;;;;;;;0.97;0.87;;;12.60;97.10;;;;;;6279372;28;20596;-63
2023/03/25 12:15:54;;;;;;;1.43;0.90;;;12.80;96.90;;;;;;6279495;28;20482;-63
2023/03/25 12:19:09;;;;;;;1.07;0.80;;;13.00;96.30;;;;;;6278583;28;20936;-62
2023/03/25 12:22:22;;;;;;;0.90;0.80;;;12.70;96.50;;;;;;6276489;28;20905;-63
2023/03/25 12:25:31;;;;;;;0.97;0.70;;;12.80;97.00;;;;;;6276029;28;20485;-63
2023/03/25 12:29:12;;;;;;;0.80;0.80;;;12.90;96.80;;;;;;6279021;28;20477;-63
2023/03/25 12:32:26;;;;;;;0.77;0.77;;;13.00;96.70;;;;;;6279362;28;20787;-63
2023/03/25 12:35:37;;;;;;;0.97;0.80;;;13.20;96.30;;;;;;6270042;28;20467;-62
2023/03/25 12:38:53;;;;;;;1.57;0.77;;;13.50;96.10;;;;;;6253679;28;20477;-62
2023/03/25 12:42:03;;;;;;;2.33;0.80;;;13.60;95.40;;;;;;6275252;28;20474;-62
2023/03/25 12:45:34;;;;;;;1.10;1.00;;;13.70;95.30;;;;;;6278534;28;20474;-62
2023/03/25 12:48:52;;;;;;;1.03;0.80;;;13.70;95.00;;;;;;6277644;28;20484;-61
2023/03/25 12:52:04;;;;;;;0.80;0.73;;;13.60;95.00;;;;;;6278580;28;20478;-62
2023/03/25 12:55:24;;;;;;;1.60;0.70;;;13.80;94.10;;;;;;6277114;28;20465;-62
2023/03/25 12:58:45;;;;;;;1.20;0.77;;;14.00;94.10;;;;;;6278442;28;20458;-63
2023/03/25 13:01:56;;;;;;;0.80;0.67;;;14.20;94.00;;;;;;6277325;28;21066;-64
2023/03/25 13:05:14;;;;;;;1.33;0.70;;;14.50;93.30;;;;;;6278271;28;20481;-62
2023/03/25 13:08:21;;;;;;;1.80;0.80;;;14.80;92.70;;;;;;6278026;28;20481;-62
2023/03/25 13:11:30;;;;;;;1.43;0.70;;;15.00;92.00;;;;;;6278216;28;20496;-63
2023/03/25 13:14:37;;;;;;;0.80;0.57;;;15.30;91.60;;;;;;6276980;28;20488;-62
2023/03/25 13:17:47;;;;;;;0.80;0.73;;;15.60;91.00;;;;;;6284871;28;20461;-62
2023/03/25 13:21:01;;;;;;;0.70;0.70;;;16.00;90.00;;;;;;6302196;28;20533;-67
2023/03/25 13:24:17;;;;;;;1.40;0.60;;;16.00;89.20;;;;;;6301733;28;20479;-65
2023/03/25 13:27:21;;;;;;;2.50;0.77;;;15.80;88.60;;;;;;6293143;28;20474;-63
2023/03/25 13:30:31;;;;;;;1.17;0.53;;;15.70;88.50;;;;;;6273748;28;20943;-64
2023/03/25 13:33:41;;;;;;;1.00;0.87;;;16.10;88.90;;;;;;6276893;28;20474;-62
2023/03/25 13:36:53;;;;;;;1.10;1.00;;;16.40;87.60;;;;;;6276534;28;20540;-62
2023/03/25 13:40:12;;;;;;;0.90;0.70;;;16.40;86.00;;;;;;6276026;28;20478;-61
2023/03/25 13:43:23;;;;;;;1.63;0.70;;;16.10;85.70;;;;;;6274929;28;20434;-61
2023/03/25 13:46:33;;;;;;;1.10;0.73;;;15.80;87.40;;;;;;6269344;28;20476;-61
2023/03/25 13:49:41;;;;;;;1.80;0.60;;;15.50;88.30;;;;;;6276263;28;20547;-60
2023/03/25 13:52:51;;;;;;;1.80;0.83;;;15.20;90.00;;;;;;6278776;28;20471;-62
2023/03/25 13:56:02;;;;;;;2.83;0.67;;;15.10;90.00;;;;;;6277900;28;20810;-62
2023/03/25 13:59:40;;;;;;;1.30;0.90;;;15.20;90.30;;;;;;6275866;28;20470;-60
2023/03/25 14:03:19;;;;;;;1.43;0.70;;;15.10;88.00;;;;;;6269979;28;21162;-61
2023/03/25 14:06:44;;;;;;;1.80;0.90;;;15.10;87.80;;;;;;6273422;28;20481;-61
2023/03/25 14:10:17;;;;;;;0.80;0.63;;;15.10;88.80;;;;;;6274380;28;20811;-61
2023/03/25 14:13:26;;;;;;;0.80;0.80;;;15.10;89.50;;;;;;6274695;28;20466;-62
2023/03/25 14:16:34;;;;;;;0.93;0.70;;;15.20;89.60;;;;;;6274063;28;20782;-61
2023/03/25 14:19:41;;;;;;;0.93;0.80;;;15.10;89.40;;;;;;6274568;28;20478;-62
2023/03/25 14:22:45;;;;;;;1.00;0.90;;;15.20;89.00;;;;;;6275289;28;20490;-61
2023/03/25 14:25:53;;;;;;;1.73;0.70;;;15.10;89.40;;;;;;6275395;28;20969;-61
2023/03/25 14:28:57;;;;;;;0.80;0.80;;;15.00;87.90;;;;;;6275654;28;20481;-61
2023/03/25 14:32:03;;;;;;;2.00;0.97;;;14.90;85.60;;;;;;6275798;28;20470;-61
2023/03/25 14:35:47;;;;;;;2.23;0.90;;;15.00;86.20;;;;;;6275186;28;20561;-60
2023/03/25 14:38:55;;;;;;;0.80;0.60;;;15.00;85.50;;;;;;6275679;28;20474;-62
2023/03/25 14:42:00;;;;;;;1.00;0.90;;;14.80;83.40;;;;;;6275451;28;20560;-61
2023/03/25 14:45:41;;;;;;;1.80;0.73;;;14.80;82.60;;;;;;6275299;28;20474;-61
2023/03/25 14:48:50;;;;;;;2.00;0.97;;;14.80;80.40;;;;;;6275592;28;20864;-61
2023/03/25 14:51:57;;;;;;;0.77;0.77;;;14.40;81.20;;;;;;6275005;28;20466;-61
2023/03/25 14:55:08;;;;;;;1.20;1.10;;;14.20;82.80;;;;;;6274985;28;20489;-62
2023/03/25 14:58:19;;;;;;;1.10;0.77;;;14.40;82.40;;;;;;6275073;28;20924;-62
2023/03/25 15:01:30;;;;;;;1.80;0.90;;;14.10;81.50;;;;;;6275354;28;20481;-62
2023/03/25 15:04:36;;;;;;;1.77;0.80;;;14.20;81.90;;;;;;6274902;28;21122;-62
2023/03/25 15:07:44;;;;;;;1.83;1.43;;;14.30;78.80;;;;;;6275265;28;20470;-61
2023/03/25 15:11:02;;;;;;;1.37;0.63;;;14.40;77.80;;;;;;6274758;28;20820;-61
2023/03/25 15:14:08;;;;;;;1.10;0.67;;;14.50;78.30;;;;;;6274888;28;20820;-61
2023/03/25 15:17:33;;;;;;;1.00;0.77;;;14.50;76.90;;;;;;6274433;28;20481;-62
2023/03/25 15:20:36;;;;;;;0.70;0.70;;;14.70;76.50;;;;;;6274320;28;20498;-61
2023/03/25 15:23:43;;;;;;;1.50;0.70;;;14.70;76.50;;;;;;6274974;28;20462;-61
2023/03/25 15:26:49;;;;;;;0.90;0.77;;;14.90;77.00;;;;;;6274352;28;20485;-62
2023/03/25 15:30:02;;;;;;;2.80;0.83;;;14.90;75.70;;;;;;6274566;28;20474;-62
2023/03/25 15:33:20;;;;;;;2.27;1.33;;;15.10;74.60;;;;;;6274584;28;20478;-62
2023/03/25 15:36:50;;;;;;;1.13;0.80;;;15.30;74.60;;;;;;6274261;28;20486;-62
2023/03/25 15:40:07;;;;;;;1.67;0.60;;;15.50;72.80;;;;;;6274376;28;20549;-62
2023/03/25 15:43:46;;;;;;;2.50;0.97;;;15.50;69.60;;;;;;6274075;28;20478;-62
2023/03/25 15:47:50;;;;;;;1.33;0.73;;;15.50;68.80;;;;;;6273994;28;20963;-62
2023/03/25 15:51:23;;;;;;;1.57;1.07;;;15.60;69.70;;;;;;6172641;28;20461;-61
2023/03/25 15:54:31;;;;;;;1.83;0.90;;;15.80;69.70;;;;;;6191631;28;20485;-62
2023/03/25 15:57:39;;;;;;;1.23;0.70;;;15.80;68.40;;;;;;6274210;28;20964;-62
2023/03/25 16:00:47;;;;;;;0.97;0.80;;;16.00;69.20;;;;;;6273927;28;20827;-62
2023/03/25 16:03:57;;;;;;;2.47;0.67;;;16.00;70.10;;;;;;6274587;28;20493;-62
2023/03/25 16:07:03;;;;;;;0.77;0.77;;;15.90;70.00;;;;;;6274000;28;20477;-62
2023/03/25 16:10:15;;;;;;;1.63;0.50;;;15.80;69.90;;;;;;6275752;28;20464;-62
2023/03/25 16:13:22;;;;;;;1.67;0.50;;;15.60;70.00;;;;;;6274072;28;20449;-61
2023/03/25 16:16:33;;;;;;;0.83;0.60;;;15.50;70.60;;;;;;6274825;28;20541;-62
2023/03/25 16:19:42;;;;;;;1.40;0.87;;;15.40;71.70;;;;;;6274494;28;20591;-62
2023/03/25 16:22:49;;;;;;;1.23;0.60;;;15.30;71.80;;;;;;6274616;28;20553;-61